createdAt,value
2022-07-26T00:01:05.702Z,19.10
2022-07-26T00:03:34.102Z,19.10
2022-07-26T00:06:02.181Z,19.10
2022-07-26T00:08:31.621Z,19.10
2022-07-26T00:10:59.910Z,19.10
2022-07-26T00:13:35.557Z,19.00
2022-07-26T00:16:04.662Z,19.00
2022-07-26T00:18:32.970Z,19.00
2022-07-26T00:21:01.334Z,19.00
2022-07-26T00:23:30.885Z,19.00
2022-07-26T00:25:58.943Z,19.00
2022-07-26T00:28:27.035Z,18.90
2022-07-26T00:30:55.182Z,18.90
2022-07-26T00:33:23.717Z,18.90
2022-07-26T00:35:52.209Z,18.90
2022-07-26T00:38:20.867Z,18.80
2022-07-26T00:40:51.026Z,18.80
2022-07-26T00:43:19.672Z,18.80
2022-07-26T00:45:48.137Z,18.80
2022-07-26T00:48:16.802Z,18.70
2022-07-26T00:50:45.796Z,18.60
2022-07-26T00:53:14.731Z,18.60
2022-07-26T00:55:43.443Z,18.50
2022-07-26T00:58:13.511Z,18.50
2022-07-26T01:00:41.813Z,18.50
2022-07-26T01:03:11.162Z,18.40
2022-07-26T01:05:39.279Z,18.40
2022-07-26T01:08:07.469Z,18.30
2022-07-26T01:10:35.667Z,18.30
2022-07-26T01:13:03.798Z,18.30
2022-07-26T01:15:33.270Z,18.20
2022-07-26T01:18:01.375Z,18.20
2022-07-26T01:20:29.637Z,18.20
2022-07-26T01:22:59.068Z,18.10
2022-07-26T01:25:31.580Z,18.10
2022-07-26T01:27:59.674Z,18.10
2022-07-26T01:30:27.796Z,18.10
2022-07-26T01:32:56.012Z,18.00
2022-07-26T01:35:24.158Z,18.00
2022-07-26T01:37:58.627Z,18.00
2022-07-26T01:40:26.853Z,18.00
2022-07-26T01:42:55.196Z,18.10
2022-07-26T01:45:23.287Z,18.10
2022-07-26T01:47:51.579Z,18.00
2022-07-26T01:50:20.136Z,18.00
2022-07-26T01:52:48.260Z,18.10
2022-07-26T01:55:17.781Z,18.00
2022-07-26T01:57:46.381Z,18.00
2022-07-26T02:00:15.619Z,17.90
2022-07-26T02:02:43.824Z,17.90
2022-07-26T02:05:12.562Z,17.90
2022-07-26T02:07:44.427Z,17.90
2022-07-26T02:10:13.662Z,17.90
2022-07-26T02:12:44.270Z,17.90
2022-07-26T02:15:15.019Z,17.90
2022-07-26T02:17:43.601Z,18.00
2022-07-26T02:20:11.951Z,18.00
2022-07-26T02:22:40.081Z,18.00
2022-07-26T02:25:08.597Z,18.00
2022-07-26T02:27:36.786Z,18.10
2022-07-26T02:30:07.246Z,18.00
2022-07-26T02:32:35.295Z,18.10
2022-07-26T02:35:03.359Z,18.00
2022-07-26T02:37:31.411Z,18.00
2022-07-26T02:40:06.380Z,18.00
2022-07-26T02:42:34.662Z,18.00
2022-07-26T02:45:02.738Z,17.90
2022-07-26T02:47:32.979Z,17.90
2022-07-26T02:50:01.086Z,17.90
2022-07-26T02:52:29.177Z,17.80
2022-07-26T02:54:58.051Z,17.90
2022-07-26T02:57:26.119Z,17.80
2022-07-26T02:59:54.166Z,17.80
2022-07-26T03:02:22.360Z,17.70
2022-07-26T03:04:52.315Z,17.70
2022-07-26T03:07:20.407Z,17.70
2022-07-26T03:09:48.460Z,17.70
2022-07-26T03:12:16.528Z,17.70
2022-07-26T03:14:44.601Z,17.70
2022-07-26T03:17:12.740Z,17.70
2022-07-26T03:19:40.831Z,17.70
2022-07-26T03:22:10.675Z,17.70
2022-07-26T03:24:38.911Z,17.70
2022-07-26T03:27:07.033Z,17.70
2022-07-26T03:29:35.238Z,17.70
2022-07-26T03:32:03.322Z,17.70
2022-07-26T03:34:31.411Z,17.70
2022-07-26T03:36:59.477Z,17.70
2022-07-26T03:39:28.955Z,17.70
2022-07-26T03:41:56.995Z,17.70
2022-07-26T03:44:25.039Z,17.70
2022-07-26T03:46:53.116Z,17.70
2022-07-26T03:49:21.253Z,17.80
2022-07-26T03:51:49.816Z,17.70
2022-07-26T03:54:17.966Z,17.70
2022-07-26T03:56:46.457Z,17.70
2022-07-26T03:59:15.585Z,17.70
2022-07-26T04:01:44.506Z,17.70
2022-07-26T04:04:13.888Z,17.80
2022-07-26T04:06:42.631Z,17.80
2022-07-26T04:09:11.268Z,17.80
2022-07-26T04:11:40.086Z,17.80
2022-07-26T04:14:10.512Z,17.90
2022-07-26T04:16:43.247Z,17.90
2022-07-26T04:19:11.747Z,17.90
2022-07-26T04:21:39.906Z,18.00
2022-07-26T04:24:09.070Z,18.00
2022-07-26T04:26:37.607Z,18.00
2022-07-26T04:29:05.750Z,18.00
2022-07-26T04:31:37.060Z,18.00
2022-07-26T04:34:05.401Z,18.00
2022-07-26T04:36:33.966Z,18.00
2022-07-26T04:39:02.061Z,18.00
2022-07-26T04:41:30.146Z,17.90
2022-07-26T04:43:58.224Z,17.90
2022-07-26T04:46:26.379Z,17.90
2022-07-26T04:48:55.890Z,18.00
2022-07-26T04:51:25.641Z,18.00
2022-07-26T04:53:53.734Z,18.00
2022-07-26T04:56:21.802Z,18.10
2022-07-26T04:58:49.894Z,18.10
2022-07-26T05:01:17.982Z,18.10
2022-07-26T05:03:46.088Z,18.00
2022-07-26T05:06:15.535Z,17.90
2022-07-26T05:08:43.616Z,17.90
2022-07-26T05:11:11.710Z,17.90
2022-07-26T05:13:39.892Z,18.00
2022-07-26T05:16:11.954Z,17.90
2022-07-26T05:18:45.788Z,17.90
2022-07-26T05:21:19.529Z,17.90
2022-07-26T05:23:47.784Z,17.90
2022-07-26T05:26:16.050Z,17.90
2022-07-26T05:28:44.160Z,17.80
2022-07-26T05:31:12.292Z,17.80
2022-07-26T05:33:40.481Z,17.70
2022-07-26T05:36:09.451Z,17.80
2022-07-26T05:38:39.069Z,17.80
2022-07-26T05:41:07.591Z,17.90
2022-07-26T05:43:40.647Z,17.80
2022-07-26T05:46:10.539Z,17.90
2022-07-26T05:48:38.940Z,17.90
2022-07-26T05:51:07.168Z,18.20
2022-07-26T05:53:35.301Z,18.40
2022-07-26T05:56:05.441Z,18.50
2022-07-26T05:58:33.598Z,18.50
2022-07-26T06:01:01.661Z,18.50
2022-07-26T06:03:30.800Z,18.50
2022-07-26T06:06:00.126Z,18.50
2022-07-26T06:08:29.080Z,18.30
2022-07-26T06:10:57.599Z,18.40
2022-07-26T06:13:27.098Z,18.30
2022-07-26T06:15:55.193Z,18.50
2022-07-26T06:18:23.470Z,18.50
2022-07-26T06:20:51.826Z,18.40
2022-07-26T06:23:30.994Z,18.30
2022-07-26T06:26:03.937Z,18.30
2022-07-26T06:28:34.078Z,18.30
2022-07-26T06:31:02.382Z,18.40
2022-07-26T06:33:30.461Z,18.50
2022-07-26T06:35:58.591Z,18.60
2022-07-26T06:38:26.672Z,18.70
2022-07-26T06:40:54.877Z,18.70
2022-07-26T06:43:23.097Z,18.70
2022-07-26T06:45:52.703Z,18.60
2022-07-26T06:48:20.854Z,18.60
2022-07-26T06:50:50.026Z,18.50
2022-07-26T06:53:18.347Z,18.60
2022-07-26T06:55:46.454Z,18.80
2022-07-26T06:58:14.602Z,18.90
2022-07-26T07:00:42.882Z,19.00
2022-07-26T07:03:12.396Z,19.00
2022-07-26T07:05:40.543Z,19.00
2022-07-26T07:08:08.858Z,19.20
2022-07-26T07:10:38.499Z,19.60
2022-07-26T07:13:07.461Z,19.70
2022-07-26T07:15:36.453Z,20.00
2022-07-26T07:18:04.733Z,20.40
2022-07-26T07:20:34.426Z,20.90
2022-07-26T07:23:02.628Z,21.60
2022-07-26T07:25:31.175Z,21.60
2022-07-26T07:28:00.086Z,21.10
2022-07-26T07:30:28.693Z,21.10
2022-07-26T07:32:57.002Z,21.10
2022-07-26T07:35:31.923Z,21.20
2022-07-26T07:38:01.990Z,21.50
2022-07-26T07:40:30.490Z,21.30
2022-07-26T07:42:58.991Z,20.90
2022-07-26T07:45:27.133Z,20.50
2022-07-26T07:47:55.342Z,20.10
2022-07-26T07:50:28.343Z,20.00
2022-07-26T07:52:58.015Z,19.90
2022-07-26T07:55:46.212Z,19.90
2022-07-26T07:58:17.242Z,19.60
2022-07-26T08:00:45.821Z,19.30
2022-07-26T08:03:18.433Z,18.90
2022-07-26T08:05:49.363Z,18.80
2022-07-26T08:08:18.471Z,18.80
2022-07-26T08:10:49.147Z,18.90
2022-07-26T08:13:21.683Z,19.00
2022-07-26T08:15:50.477Z,19.10
2022-07-26T08:18:20.147Z,19.30
2022-07-26T08:20:52.291Z,19.50
2022-07-26T08:23:20.933Z,19.70
2022-07-26T08:25:56.609Z,19.90
2022-07-26T08:28:45.566Z,20.00
2022-07-26T08:31:14.463Z,20.00
2022-07-26T08:33:45.924Z,20.10
2022-07-26T08:36:15.778Z,20.20
2022-07-26T08:38:44.279Z,19.70
2022-07-26T08:41:13.728Z,19.30
2022-07-26T08:43:51.202Z,19.10
2022-07-26T08:46:25.753Z,19.10
2022-07-26T08:48:54.785Z,19.00
2022-07-26T08:51:25.161Z,18.90
2022-07-26T08:54:02.282Z,18.90
2022-07-26T08:56:35.896Z,18.80
2022-07-26T08:59:06.678Z,18.90
2022-07-26T09:01:35.259Z,18.80
2022-07-26T09:04:32.255Z,18.60
2022-07-26T09:07:05.167Z,18.50
2022-07-26T09:09:34.776Z,18.50
2022-07-26T09:12:17.410Z,18.50
2022-07-26T09:14:47.418Z,18.60
2022-07-26T09:17:16.901Z,18.70
2022-07-26T09:19:45.329Z,18.90
2022-07-26T09:22:15.313Z,19.00
2022-07-26T09:24:45.544Z,19.00
2022-07-26T09:27:17.638Z,18.80
2022-07-26T09:29:47.392Z,18.80
2022-07-26T09:32:19.605Z,18.90
2022-07-26T09:34:53.117Z,19.20
2022-07-26T09:37:34.804Z,19.50
2022-07-26T09:40:05.042Z,19.50
2022-07-26T09:42:35.016Z,19.40
2022-07-26T09:45:03.729Z,19.00
2022-07-26T09:47:39.111Z,18.60
2022-07-26T09:50:12.265Z,18.60
2022-07-26T09:52:40.667Z,18.80
2022-07-26T09:55:10.561Z,19.20
2022-07-26T09:57:40.271Z,20.00
2022-07-26T10:00:09.753Z,21.00
2022-07-26T10:02:37.952Z,21.50
2022-07-26T10:05:07.617Z,21.80
2022-07-26T10:07:36.082Z,22.50
2022-07-26T10:10:08.131Z,23.30
2022-07-26T10:12:37.079Z,23.40
2022-07-26T10:15:07.595Z,22.60
2022-07-26T10:17:43.247Z,22.00
2022-07-26T10:20:17.427Z,21.80
2022-07-26T10:22:50.410Z,21.40
2022-07-26T10:25:47.263Z,21.10
2022-07-26T10:28:27.374Z,20.90
2022-07-26T10:31:25.922Z,20.60
2022-07-26T10:33:55.585Z,20.40
2022-07-26T10:36:25.747Z,20.50
2022-07-26T10:39:08.623Z,20.60
2022-07-26T10:41:39.149Z,20.60
2022-07-26T10:44:25.691Z,20.80
2022-07-26T10:47:03.761Z,20.90
2022-07-26T10:49:34.827Z,20.70
2022-07-26T10:52:17.453Z,20.60
2022-07-26T10:55:19.257Z,20.60
2022-07-26T10:57:49.399Z,20.90
2022-07-26T11:00:28.102Z,21.40
2022-07-26T11:02:59.678Z,21.40
2022-07-26T11:05:31.963Z,21.20
2022-07-26T11:08:05.313Z,21.20
2022-07-26T11:10:35.109Z,21.40
2022-07-26T11:13:12.028Z,21.40
2022-07-26T11:15:42.763Z,21.40
2022-07-26T11:18:18.339Z,21.70
2022-07-26T11:20:48.025Z,21.90
2022-07-26T11:23:27.085Z,21.80
2022-07-26T11:26:07.102Z,21.70
2022-07-26T11:29:00.033Z,21.50
2022-07-26T11:31:52.065Z,20.90
2022-07-26T11:34:26.532Z,20.60
2022-07-26T11:36:56.840Z,20.70
2022-07-26T11:39:26.357Z,21.00
2022-07-26T11:41:59.093Z,21.10
2022-07-26T11:44:27.491Z,21.00
2022-07-26T11:46:57.636Z,21.40
2022-07-26T11:49:51.896Z,22.00
2022-07-26T11:52:25.348Z,22.20
2022-07-26T11:54:54.644Z,21.80
2022-07-26T11:57:22.852Z,21.70
2022-07-26T11:59:51.573Z,22.40
2022-07-26T12:02:21.995Z,22.50
2022-07-26T12:05:11.757Z,21.80
2022-07-26T12:07:40.114Z,21.30
2022-07-26T12:10:09.071Z,21.50
2022-07-26T12:12:37.197Z,22.10
2022-07-26T12:15:07.407Z,22.50
2022-07-26T12:17:36.136Z,22.30
2022-07-26T12:20:17.611Z,21.80
2022-07-26T12:22:55.042Z,21.40
2022-07-26T12:25:27.400Z,21.80
2022-07-26T12:27:56.087Z,22.00
2022-07-26T12:30:25.607Z,22.00
2022-07-26T12:33:02.892Z,21.80
2022-07-26T12:35:35.620Z,21.90
2022-07-26T12:38:04.425Z,21.70
2022-07-26T12:40:41.241Z,21.30
2022-07-26T12:43:10.009Z,21.00
2022-07-26T12:45:38.150Z,21.10
2022-07-26T12:48:10.090Z,21.50
2022-07-26T12:50:39.853Z,21.90
2022-07-26T12:53:09.378Z,21.80
2022-07-26T12:55:41.018Z,21.80
2022-07-26T12:58:09.924Z,22.00
2022-07-26T13:00:37.969Z,22.00
2022-07-26T13:03:06.123Z,22.00
2022-07-26T13:05:34.179Z,22.10
2022-07-26T13:08:03.677Z,22.00
2022-07-26T13:10:34.124Z,21.90
2022-07-26T13:13:03.628Z,21.80
2022-07-26T13:15:36.566Z,21.70
2022-07-26T13:18:07.640Z,21.50
2022-07-26T13:20:37.726Z,21.30
2022-07-26T13:23:09.771Z,21.30
2022-07-26T13:25:40.682Z,21.20
2022-07-26T13:28:09.928Z,21.20
2022-07-26T13:30:39.409Z,21.20
2022-07-26T13:33:08.294Z,21.30
2022-07-26T13:35:38.882Z,21.40
2022-07-26T13:38:08.316Z,21.40
2022-07-26T13:40:36.447Z,21.50
2022-07-26T13:43:05.250Z,21.50
2022-07-26T13:45:33.327Z,21.20
2022-07-26T13:48:01.411Z,20.90
2022-07-26T13:50:29.664Z,20.90
2022-07-26T13:52:57.895Z,21.10
2022-07-26T13:55:27.440Z,21.10
2022-07-26T13:57:57.582Z,21.30
2022-07-26T14:00:27.177Z,21.60
2022-07-26T14:02:56.024Z,21.50
2022-07-26T14:05:24.267Z,21.60
2022-07-26T14:07:52.467Z,21.50
2022-07-26T14:10:21.229Z,21.50
2022-07-26T14:12:51.356Z,21.50
2022-07-26T14:15:22.616Z,21.50
2022-07-26T14:17:52.410Z,21.60
2022-07-26T14:20:21.119Z,21.60
2022-07-26T14:22:53.192Z,21.50
2022-07-26T14:25:21.584Z,21.40
2022-07-26T14:27:52.378Z,21.30
2022-07-26T14:30:21.324Z,21.20
2022-07-26T14:32:49.691Z,20.90
2022-07-26T14:35:18.217Z,20.80
2022-07-26T14:37:46.455Z,20.90
2022-07-26T14:40:16.647Z,21.00
2022-07-26T14:42:45.779Z,21.10
2022-07-26T14:45:17.396Z,21.10
2022-07-26T14:47:45.698Z,20.90
2022-07-26T14:50:16.042Z,20.70
2022-07-26T14:52:46.041Z,20.70
2022-07-26T14:55:15.421Z,20.80
2022-07-26T14:57:43.654Z,20.70
2022-07-26T15:00:15.314Z,20.50
2022-07-26T15:02:45.646Z,20.30
2022-07-26T15:05:16.255Z,20.20
2022-07-26T15:07:44.844Z,20.20
2022-07-26T15:10:14.589Z,20.30
2022-07-26T15:12:43.471Z,20.50
2022-07-26T15:15:13.845Z,20.40
2022-07-26T15:17:41.950Z,20.40
2022-07-26T15:20:10.485Z,20.20
2022-07-26T15:22:38.578Z,20.10
2022-07-26T15:25:07.513Z,20.30
2022-07-26T15:27:35.588Z,20.30
2022-07-26T15:30:06.893Z,20.20
2022-07-26T15:32:39.614Z,20.20
2022-07-26T15:35:14.724Z,20.10
2022-07-26T15:37:44.543Z,20.00
2022-07-26T15:40:13.749Z,20.00
2022-07-26T15:42:44.180Z,20.00
2022-07-26T15:45:13.270Z,20.10
2022-07-26T15:48:10.991Z,20.00
2022-07-26T15:50:32.030Z,19.80
2022-07-26T15:53:00.212Z,19.70
2022-07-26T15:55:28.362Z,19.70
2022-07-26T15:57:56.710Z,19.70
2022-07-26T16:00:25.209Z,19.70
2022-07-26T16:02:54.745Z,19.70
2022-07-26T16:05:22.863Z,19.90
2022-07-26T16:07:50.924Z,20.00
2022-07-26T16:10:19.051Z,20.00
2022-07-26T16:12:47.317Z,20.20
2022-07-26T16:15:15.503Z,20.20
2022-07-26T16:17:43.621Z,20.10
2022-07-26T16:20:13.265Z,19.90
2022-07-26T16:22:41.906Z,19.80
2022-07-26T16:25:13.444Z,19.90
2022-07-26T16:27:42.722Z,19.90
2022-07-26T16:30:12.285Z,20.00
2022-07-26T16:32:40.374Z,19.90
2022-07-26T16:35:09.042Z,19.80
2022-07-26T16:37:38.596Z,19.70
2022-07-26T16:40:08.313Z,19.60
2022-07-26T16:42:36.449Z,19.50
2022-07-26T16:45:05.105Z,19.60
2022-07-26T16:47:33.213Z,19.70
2022-07-26T16:50:01.348Z,19.60
2022-07-26T16:52:29.446Z,19.50
2022-07-26T16:54:59.058Z,19.50
2022-07-26T16:57:28.063Z,19.60
2022-07-26T16:59:56.199Z,19.60
2022-07-26T17:02:24.834Z,19.50
2022-07-26T17:04:55.803Z,19.50
2022-07-26T17:07:26.205Z,19.30
2022-07-26T17:09:55.137Z,19.20
2022-07-26T17:12:25.152Z,19.20
2022-07-26T17:14:53.320Z,19.20
2022-07-26T17:17:21.487Z,19.00
2022-07-26T17:19:49.955Z,19.10
2022-07-26T17:22:18.385Z,19.20
2022-07-26T17:24:47.003Z,19.10
2022-07-26T17:27:16.020Z,19.00
2022-07-26T17:29:45.483Z,19.00
2022-07-26T17:32:13.601Z,18.90
2022-07-26T17:34:41.706Z,18.80
2022-07-26T17:37:10.554Z,18.80
2022-07-26T17:39:51.728Z,18.70
2022-07-26T17:42:21.156Z,18.50
2022-07-26T17:44:50.648Z,18.50
2022-07-26T17:47:29.265Z,18.50
2022-07-26T17:50:14.189Z,18.60
2022-07-26T17:52:48.652Z,18.70
2022-07-26T17:55:18.361Z,18.70
2022-07-26T17:57:47.674Z,18.70
2022-07-26T18:00:19.639Z,18.50
2022-07-26T18:02:47.987Z,18.50
2022-07-26T18:05:18.285Z,18.50
2022-07-26T18:07:46.508Z,18.50
2022-07-26T18:10:15.384Z,18.40
2022-07-26T18:12:43.563Z,18.40
2022-07-26T18:15:12.096Z,18.30
2022-07-26T18:17:41.806Z,18.30
2022-07-26T18:20:11.283Z,18.30
2022-07-26T18:22:39.421Z,18.30
2022-07-26T18:25:08.731Z,18.30
2022-07-26T18:27:36.954Z,18.20
2022-07-26T18:30:06.110Z,18.20
2022-07-26T18:32:34.877Z,18.10
2022-07-26T18:35:05.984Z,18.20
2022-07-26T18:37:34.175Z,18.10
2022-07-26T18:40:02.289Z,18.10
2022-07-26T18:42:30.379Z,18.10
2022-07-26T18:44:58.511Z,18.10
2022-07-26T18:47:26.651Z,18.00
2022-07-26T18:49:54.912Z,18.00
2022-07-26T18:52:28.889Z,17.90
2022-07-26T18:55:06.805Z,17.90
2022-07-26T18:57:35.570Z,17.80
2022-07-26T19:00:04.571Z,17.90
2022-07-26T19:02:32.682Z,17.80
2022-07-26T19:05:00.963Z,17.80
2022-07-26T19:07:31.677Z,17.70
2022-07-26T19:10:00.060Z,17.70
2022-07-26T19:12:28.912Z,17.70
2022-07-26T19:14:59.783Z,17.70
2022-07-26T19:17:30.189Z,17.70
2022-07-26T19:20:00.290Z,17.70
2022-07-26T19:22:29.179Z,17.70
2022-07-26T19:24:58.913Z,17.60
2022-07-26T19:27:27.871Z,17.60
2022-07-26T19:29:56.951Z,17.60
2022-07-26T19:32:28.096Z,17.50
2022-07-26T19:34:59.859Z,17.50
2022-07-26T19:37:27.998Z,17.40
2022-07-26T19:40:00.293Z,17.40
2022-07-26T19:42:31.899Z,17.30
2022-07-26T19:45:00.652Z,17.30
2022-07-26T19:47:29.787Z,17.20
2022-07-26T19:49:58.713Z,17.20
2022-07-26T19:52:26.842Z,17.20
2022-07-26T19:54:54.950Z,17.10
2022-07-26T19:57:23.236Z,17.10
2022-07-26T19:59:53.872Z,17.10
2022-07-26T20:02:22.727Z,17.10
2022-07-26T20:04:51.248Z,17.10
2022-07-26T20:07:20.186Z,17.10
2022-07-26T20:09:50.005Z,17.10
2022-07-26T20:12:18.791Z,17.10
2022-07-26T20:14:47.283Z,17.10
2022-07-26T20:17:17.257Z,17.10
2022-07-26T20:19:45.770Z,17.10
2022-07-26T20:22:14.039Z,17.00
2022-07-26T20:24:42.111Z,17.00
2022-07-26T20:27:10.207Z,17.00
2022-07-26T20:29:38.314Z,16.90
2022-07-26T20:32:07.379Z,16.90
2022-07-26T20:34:37.118Z,16.80
2022-07-26T20:37:05.830Z,16.80
2022-07-26T20:39:35.943Z,16.80
2022-07-26T20:42:04.726Z,16.80
2022-07-26T20:44:33.112Z,16.80
2022-07-26T20:47:02.891Z,16.80
2022-07-26T20:49:31.130Z,16.70
2022-07-26T20:52:04.330Z,16.70
2022-07-26T20:54:32.479Z,16.70
2022-07-26T20:57:00.539Z,16.70
2022-07-26T20:59:34.957Z,16.70
2022-07-26T21:02:03.248Z,16.60
2022-07-26T21:04:32.172Z,16.60
2022-07-26T21:07:01.619Z,16.60
2022-07-26T21:09:30.512Z,16.50
2022-07-26T21:11:58.758Z,16.50
2022-07-26T21:14:26.895Z,16.50
2022-07-26T21:16:54.999Z,16.50
2022-07-26T21:19:23.327Z,16.50
2022-07-26T21:21:53.652Z,16.50
2022-07-26T21:24:23.096Z,16.50
2022-07-26T21:26:51.155Z,16.50
2022-07-26T21:29:19.250Z,16.50
2022-07-26T21:31:47.405Z,16.50
2022-07-26T21:34:15.540Z,16.50
2022-07-26T21:36:43.713Z,16.50
2022-07-26T21:39:12.387Z,16.50
2022-07-26T21:41:42.055Z,16.40
2022-07-26T21:44:10.163Z,16.40
2022-07-26T21:46:38.320Z,16.40
2022-07-26T21:49:06.529Z,16.40
2022-07-26T21:51:34.667Z,16.30
2022-07-26T21:54:02.745Z,16.30
2022-07-26T21:56:30.963Z,16.30
2022-07-26T21:59:00.942Z,16.30
2022-07-26T22:01:29.192Z,16.30
2022-07-26T22:03:57.622Z,16.30
2022-07-26T22:06:25.881Z,16.20
2022-07-26T22:08:53.958Z,16.20
2022-07-26T22:11:22.220Z,16.20
2022-07-26T22:13:50.388Z,16.20
2022-07-26T22:16:19.954Z,16.20
2022-07-26T22:18:48.400Z,16.20
2022-07-26T22:21:16.503Z,16.20
2022-07-26T22:23:44.585Z,16.20
2022-07-26T22:26:12.692Z,16.20
2022-07-26T22:28:40.802Z,16.20
2022-07-26T22:31:09.177Z,16.20
2022-07-26T22:33:38.807Z,16.10
2022-07-26T22:36:07.297Z,16.10
2022-07-26T22:38:35.380Z,16.10
2022-07-26T22:41:03.471Z,16.10
2022-07-26T22:43:31.547Z,16.00
2022-07-26T22:45:59.680Z,16.00
2022-07-26T22:48:27.821Z,16.00
2022-07-26T22:50:57.267Z,16.00
2022-07-26T22:53:25.357Z,16.00
2022-07-26T22:55:53.527Z,15.90
2022-07-26T22:58:21.577Z,15.90
2022-07-26T23:00:49.682Z,15.90
2022-07-26T23:03:20.623Z,15.90
2022-07-26T23:05:52.149Z,15.80
2022-07-26T23:08:46.944Z,15.80
2022-07-26T23:11:10.055Z,15.90
2022-07-26T23:13:38.118Z,15.80
2022-07-26T23:16:06.697Z,15.80
2022-07-26T23:18:36.052Z,15.80
2022-07-26T23:21:32.612Z,15.80
2022-07-26T23:24:34.088Z,15.70
2022-07-26T23:27:02.210Z,15.70
2022-07-26T23:29:30.347Z,15.70
2022-07-26T23:31:58.434Z,15.60
2022-07-26T23:34:26.597Z,15.60
2022-07-26T23:36:54.735Z,15.70
2022-07-26T23:39:23.052Z,15.60
2022-07-26T23:41:52.494Z,15.60
2022-07-26T23:44:20.565Z,15.60
2022-07-26T23:46:48.791Z,15.60
2022-07-26T23:49:17.366Z,15.60
2022-07-26T23:51:45.756Z,15.60
2022-07-26T23:54:13.835Z,15.60
2022-07-26T23:56:41.947Z,15.60
2022-07-26T23:59:11.774Z,15.60
